MET'MAP v2.0
soon released !

Expected late october,
this new version will be
more efficient, smarter,
and hosted on a brand new
server x3 powerfull...
...and still free !


Not compatible ?
Try the mobile version !

LOG IN : | Subscribe | Disclaimer | Who is Orbifly ? |
ICAO code :
Legend : VFR Marginal VFR IFR Intensive IFR Very Intensive IFR
Visi :
Ceiling :
>= 8 km
>= 3000ft
5 to 8 km
1000 to 3000 ft
1500m to 5 km
500 to 1000 ft
800 to 1500m
200 to 500 ft
< 800m
< 200 ft

METAR - EGOV RAF Valley - 09 Apr 2020 16:53 UTC - Data Source NOAA   


- Airport Elevation : 37 ft
- IATA code : HLY
- No reported NOTAMs.


EGOV - RAF Valley

Latest METAR recorded : 2015/08/11 07:50 EGOV 110750Z 28006KT 9999 FEW013 SCT018 BKN050 14/12 Q1019 WHT BECMG FEW018 SCT030 BLU
TAF TAF EGOV
Valid from the 09 at 12:00 until the 09 at 18:00 UTC


091016Z 0912/0918 04006KT CAVOK

Source NOAA


MET'MAP, your aeronautical weather chart ! - Copyright ORBIFLY December 2007

Programming & Development : Alexandra Zaïnal
Co-Developer : Marc-Olivier Méhu
Technical & hardware support : Manuel Goepfert
Concept & Financing : Baudouin d'Aumeries